createdAt,value
2023-03-22T00:00:18.278Z,2.88
2023-03-22T00:02:45.445Z,2.85
2023-03-22T00:05:12.621Z,2.50
2023-03-22T00:07:40.996Z,2.70
2023-03-22T00:10:08.427Z,2.20
2023-03-22T00:12:35.667Z,2.95
2023-03-22T00:15:02.784Z,2.83
2023-03-22T00:17:30.742Z,2.70
2023-03-22T00:19:58.369Z,2.88
2023-03-22T00:22:26.104Z,2.70
2023-03-22T00:24:53.916Z,3.08
2023-03-22T00:27:21.066Z,2.65
2023-03-22T00:29:48.179Z,2.55
2023-03-22T00:32:15.489Z,2.78
2023-03-22T00:34:42.628Z,2.97
2023-03-22T00:37:10.101Z,2.80
2023-03-22T00:39:37.732Z,2.88
2023-03-22T00:42:06.246Z,2.95
2023-03-22T00:44:33.493Z,3.20
2023-03-22T00:47:00.688Z,2.95
2023-03-22T00:49:27.879Z,3.10
2023-03-22T00:51:55.042Z,3.00
2023-03-22T00:54:22.466Z,3.30
2023-03-22T00:56:49.943Z,2.92
2023-03-22T00:59:17.316Z,3.33
2023-03-22T01:01:44.572Z,2.75
2023-03-22T01:04:17.932Z,3.38
2023-03-22T01:06:47.044Z,3.05
2023-03-22T01:09:15.090Z,3.25
2023-03-22T01:11:43.212Z,3.28
2023-03-22T01:14:10.543Z,3.20
2023-03-22T01:16:38.267Z,2.90
2023-03-22T01:19:06.536Z,2.88
2023-03-22T01:21:33.743Z,3.20
2023-03-22T01:24:00.998Z,3.70
2023-03-22T01:26:28.121Z,3.38
2023-03-22T01:28:55.240Z,3.97
2023-03-22T01:31:22.387Z,4.25
2023-03-22T01:33:49.553Z,4.10
2023-03-22T01:36:16.645Z,3.92
2023-03-22T01:38:43.730Z,4.30
2023-03-22T01:41:10.905Z,3.83
2023-03-22T01:43:38.069Z,4.63
2023-03-22T01:46:05.491Z,5.28
2023-03-22T01:48:38.096Z,6.30
2023-03-22T01:51:07.812Z,6.45
2023-03-22T01:53:37.343Z,7.70
2023-03-22T01:56:04.621Z,8.85
2023-03-22T01:58:32.576Z,7.63
2023-03-22T02:00:59.786Z,6.05
2023-03-22T02:03:35.460Z,5.05
2023-03-22T02:06:02.580Z,5.38
2023-03-22T02:08:29.994Z,4.93
2023-03-22T02:10:57.181Z,4.20
2023-03-22T02:13:24.262Z,4.65
2023-03-22T02:16:15.701Z,4.38
2023-03-22T02:18:55.216Z,4.28
2023-03-22T02:21:40.924Z,5.47
2023-03-22T02:24:20.701Z,4.40
2023-03-22T02:27:06.706Z,4.82
2023-03-22T02:29:45.066Z,5.47
2023-03-22T02:32:27.372Z,4.90
2023-03-22T02:34:54.491Z,4.78
2023-03-22T02:37:40.713Z,6.03
2023-03-22T02:40:14.153Z,6.07
2023-03-22T02:42:44.954Z,6.80
2023-03-22T02:45:12.387Z,7.47
2023-03-22T02:47:44.745Z,9.23
2023-03-22T02:50:11.872Z,6.30
2023-03-22T02:52:53.910Z,5.70
2023-03-22T02:55:24.804Z,6.00
2023-03-22T02:58:13.098Z,6.30
2023-03-22T03:00:42.143Z,5.55
2023-03-22T03:03:11.896Z,6.15
2023-03-22T03:05:51.375Z,6.35
2023-03-22T03:08:18.976Z,4.35
2023-03-22T03:10:46.280Z,3.90
2023-03-22T03:13:14.199Z,4.00
2023-03-22T03:15:45.550Z,3.70
2023-03-22T03:18:21.971Z,3.50
2023-03-22T03:21:08.740Z,8.38
2023-03-22T03:23:39.048Z,12.30
2023-03-22T03:26:14.474Z,8.68
2023-03-22T03:28:43.297Z,7.15
2023-03-22T03:31:14.599Z,7.65
2023-03-22T03:33:46.540Z,6.75
2023-03-22T03:36:17.476Z,5.18
2023-03-22T03:38:47.436Z,6.35
2023-03-22T03:41:16.450Z,4.70
2023-03-22T03:43:44.535Z,4.90
2023-03-22T03:46:11.948Z,4.22
2023-03-22T03:48:39.673Z,4.57
2023-03-22T03:51:06.878Z,4.80
2023-03-22T03:53:34.029Z,4.18
2023-03-22T03:56:01.192Z,4.72
2023-03-22T03:58:30.430Z,4.60
2023-03-22T04:00:57.615Z,4.93
2023-03-22T04:03:24.807Z,4.80
2023-03-22T04:05:51.993Z,5.53
2023-03-22T04:08:19.059Z,6.45
2023-03-22T04:10:49.717Z,6.35
2023-03-22T04:13:16.905Z,6.30
2023-03-22T04:15:43.978Z,6.25
2023-03-22T04:18:11.289Z,6.53
2023-03-22T04:20:41.618Z,6.35
2023-03-22T04:23:11.077Z,5.80
2023-03-22T04:25:38.734Z,6.25
2023-03-22T04:28:05.973Z,6.15
2023-03-22T04:30:36.186Z,5.40
2023-03-22T04:33:07.197Z,5.63
2023-03-22T04:35:35.212Z,5.05
2023-03-22T04:38:02.347Z,5.30
2023-03-22T04:40:35.286Z,5.32
2023-03-22T04:43:04.088Z,5.93
2023-03-22T04:45:32.454Z,5.22
2023-03-22T04:48:00.038Z,5.32
2023-03-22T04:50:28.201Z,5.50
2023-03-22T04:52:55.327Z,4.95
2023-03-22T04:55:22.452Z,5.50
2023-03-22T04:57:49.600Z,8.95
2023-03-22T05:00:17.249Z,6.60
2023-03-22T05:02:44.388Z,6.65
2023-03-22T05:05:11.555Z,6.03
2023-03-22T05:07:39.271Z,6.13
2023-03-22T05:10:07.161Z,4.97
2023-03-22T05:12:34.391Z,6.57
2023-03-22T05:15:04.360Z,5.50
2023-03-22T05:17:31.495Z,5.75
2023-03-22T05:19:58.640Z,5.40
2023-03-22T05:22:25.810Z,5.68
2023-03-22T05:24:52.934Z,5.28
2023-03-22T05:27:30.926Z,4.75
2023-03-22T05:29:58.137Z,5.22
2023-03-22T05:32:25.602Z,5.57
2023-03-22T05:34:52.789Z,6.60
2023-03-22T05:37:21.195Z,6.78
2023-03-22T05:39:48.379Z,5.28
2023-03-22T05:42:15.604Z,8.55
2023-03-22T05:44:42.815Z,11.52
2023-03-22T05:47:09.955Z,8.80
2023-03-22T05:49:37.205Z,8.23
2023-03-22T05:52:05.840Z,5.13
2023-03-22T05:54:32.941Z,7.47
2023-03-22T05:57:00.240Z,8.63
2023-03-22T05:59:27.769Z,6.72
2023-03-22T06:01:55.005Z,11.48
2023-03-22T06:04:22.201Z,5.93
2023-03-22T06:06:50.421Z,5.28
2023-03-22T06:09:18.205Z,3.85
2023-03-22T06:11:45.564Z,3.97
2023-03-22T06:14:12.703Z,3.67
2023-03-22T06:16:39.931Z,3.45
2023-03-22T06:19:07.043Z,2.85
2023-03-22T06:21:34.172Z,3.42
2023-03-22T06:24:01.334Z,3.00
2023-03-22T06:26:28.458Z,3.50
2023-03-22T06:28:55.715Z,3.25
2023-03-22T06:31:28.416Z,3.08
2023-03-22T06:33:56.476Z,3.42
2023-03-22T06:36:23.583Z,3.38
2023-03-22T06:38:50.750Z,2.85
2023-03-22T06:41:17.884Z,2.92
2023-03-22T06:43:45.217Z,3.13
2023-03-22T06:46:12.442Z,3.00
2023-03-22T06:48:39.604Z,2.92
2023-03-22T06:51:07.021Z,2.75
2023-03-22T06:53:34.100Z,2.65
2023-03-22T06:56:01.203Z,2.20
2023-03-22T06:58:28.287Z,2.80
2023-03-22T07:00:58.538Z,2.47
2023-03-22T07:03:25.837Z,2.38
2023-03-22T07:05:53.143Z,2.25
2023-03-22T07:08:20.283Z,2.30
2023-03-22T07:10:51.313Z,2.20
2023-03-22T07:13:18.448Z,2.35
2023-03-22T07:15:45.761Z,2.33
2023-03-22T07:18:13.280Z,2.30
2023-03-22T07:20:41.757Z,2.80
2023-03-22T07:23:10.795Z,2.33
2023-03-22T07:25:37.961Z,2.20
2023-03-22T07:28:06.916Z,2.92
2023-03-22T07:30:37.248Z,2.30
2023-03-22T07:33:05.103Z,2.38
2023-03-22T07:35:32.280Z,2.17
2023-03-22T07:38:00.874Z,2.38
2023-03-22T07:40:28.057Z,2.10
2023-03-22T07:42:55.986Z,2.28
2023-03-22T07:45:23.757Z,1.98
2023-03-22T07:47:50.964Z,2.13
2023-03-22T07:50:18.256Z,1.60
2023-03-22T07:52:45.839Z,1.60
2023-03-22T07:55:13.749Z,1.75
2023-03-22T07:57:41.119Z,1.60
2023-03-22T08:00:12.119Z,1.60
2023-03-22T08:02:39.835Z,1.70
2023-03-22T08:05:07.636Z,1.67
2023-03-22T08:07:34.830Z,1.60
2023-03-22T08:10:01.986Z,1.40
2023-03-22T08:12:29.219Z,1.42
2023-03-22T08:14:56.466Z,1.55
2023-03-22T08:17:23.742Z,1.58
2023-03-22T08:19:50.882Z,1.73
2023-03-22T08:22:18.083Z,1.67
2023-03-22T08:24:45.629Z,1.40
2023-03-22T08:27:14.100Z,1.38
2023-03-22T08:29:41.413Z,1.40
2023-03-22T08:32:08.596Z,1.42
2023-03-22T08:34:39.263Z,1.42
2023-03-22T08:37:06.709Z,1.45
2023-03-22T08:39:34.312Z,1.60
2023-03-22T08:42:01.640Z,1.40
2023-03-22T08:44:28.897Z,1.40
2023-03-22T08:46:56.001Z,1.10
2023-03-22T08:49:23.240Z,1.08
2023-03-22T08:51:50.701Z,1.08
2023-03-22T08:54:18.282Z,1.20
2023-03-22T08:56:45.464Z,1.25
2023-03-22T08:59:12.595Z,1.50
2023-03-22T09:01:39.886Z,1.48
2023-03-22T09:04:09.499Z,1.10
2023-03-22T09:06:37.741Z,1.15
2023-03-22T09:09:04.869Z,1.38
2023-03-22T09:11:32.007Z,1.00
2023-03-22T09:13:59.081Z,1.20
2023-03-22T09:16:26.258Z,1.20
2023-03-22T09:18:53.442Z,1.00
2023-03-22T09:21:21.840Z,1.00
2023-03-22T09:23:50.401Z,0.95
2023-03-22T09:26:17.786Z,0.65
2023-03-22T09:28:46.765Z,0.80
2023-03-22T09:31:14.256Z,0.88
2023-03-22T09:33:41.771Z,0.88
2023-03-22T09:36:09.559Z,0.93
2023-03-22T09:38:36.729Z,0.95
2023-03-22T09:41:19.206Z,0.90
2023-03-22T09:43:50.916Z,0.95
2023-03-22T09:46:30.418Z,0.80
2023-03-22T09:48:58.478Z,0.88
2023-03-22T09:51:28.722Z,1.00
2023-03-22T09:53:55.921Z,0.65
2023-03-22T09:56:28.141Z,0.70
2023-03-22T09:59:01.388Z,0.80
2023-03-22T10:01:37.819Z,0.60
2023-03-22T10:04:26.268Z,0.80
2023-03-22T10:07:01.255Z,0.80
2023-03-22T10:09:35.075Z,1.15
2023-03-22T10:12:07.033Z,0.70
2023-03-22T10:14:34.181Z,1.02
2023-03-22T10:17:05.567Z,0.80
2023-03-22T10:19:40.198Z,1.00
2023-03-22T10:22:07.860Z,0.95
2023-03-22T10:24:36.382Z,1.50
2023-03-22T10:27:03.647Z,1.33
2023-03-22T10:29:39.748Z,1.30
2023-03-22T10:32:20.670Z,1.30
2023-03-22T10:34:47.801Z,1.60
2023-03-22T10:37:20.449Z,1.40
2023-03-22T10:39:50.043Z,1.48
2023-03-22T10:42:18.471Z,1.10
2023-03-22T10:44:55.407Z,1.25
2023-03-22T10:47:31.362Z,1.40
2023-03-22T10:50:00.520Z,1.27
2023-03-22T10:52:27.742Z,1.05
2023-03-22T10:54:57.808Z,1.20
2023-03-22T10:57:27.410Z,1.25
2023-03-22T10:59:58.216Z,1.17
2023-03-22T11:02:27.660Z,1.25
2023-03-22T11:04:59.246Z,1.25
2023-03-22T11:07:39.672Z,1.10
2023-03-22T11:10:09.572Z,0.73
2023-03-22T11:12:47.527Z,1.00
2023-03-22T11:15:28.473Z,0.90
2023-03-22T11:17:59.518Z,1.17
2023-03-22T11:20:28.181Z,1.00
2023-03-22T11:22:57.363Z,1.00
2023-03-22T11:25:28.855Z,0.93
2023-03-22T11:27:58.066Z,0.82
2023-03-22T11:30:29.478Z,0.90
2023-03-22T11:33:03.270Z,0.85
2023-03-22T11:35:31.668Z,0.85
2023-03-22T11:38:01.345Z,0.93
2023-03-22T11:40:30.339Z,1.00
2023-03-22T11:43:16.296Z,0.88
2023-03-22T11:45:44.856Z,0.90
2023-03-22T11:48:28.900Z,1.05
2023-03-22T11:50:59.339Z,0.80
2023-03-22T11:53:27.660Z,0.93
2023-03-22T11:55:55.918Z,0.82
2023-03-22T11:58:26.993Z,0.95
2023-03-22T12:00:55.887Z,5.72
2023-03-22T12:03:26.518Z,1.20
2023-03-22T12:05:53.859Z,1.10
2023-03-22T12:08:39.359Z,0.80
2023-03-22T12:11:13.003Z,1.38
2023-03-22T12:13:45.880Z,1.10
2023-03-22T12:16:15.758Z,0.93
2023-03-22T12:18:48.308Z,1.00
2023-03-22T12:21:15.790Z,0.80
2023-03-22T12:23:42.951Z,0.98
2023-03-22T12:26:12.939Z,1.20
2023-03-22T12:28:40.569Z,0.82
2023-03-22T12:31:12.244Z,0.80
2023-03-22T12:33:43.995Z,0.90
2023-03-22T12:36:15.699Z,0.95
2023-03-22T12:38:48.984Z,1.23
2023-03-22T12:41:17.787Z,0.60
2023-03-22T12:43:47.628Z,0.77
2023-03-22T12:46:20.864Z,0.90
2023-03-22T12:48:50.361Z,1.02
2023-03-22T12:51:17.556Z,1.15
2023-03-22T12:53:46.514Z,0.77
2023-03-22T12:56:15.300Z,0.80
2023-03-22T12:58:45.294Z,1.00
2023-03-22T13:01:12.608Z,0.80
2023-03-22T13:03:44.813Z,0.93
2023-03-22T13:06:31.135Z,1.00
2023-03-22T13:09:04.319Z,0.70
2023-03-22T13:11:31.603Z,0.90
2023-03-22T13:13:58.778Z,0.80
2023-03-22T13:16:43.187Z,0.80
2023-03-22T13:19:27.238Z,0.90
2023-03-22T13:22:14.099Z,1.15
2023-03-22T13:25:00.110Z,1.00
2023-03-22T13:27:35.583Z,0.90
2023-03-22T13:30:08.350Z,0.80
2023-03-22T13:35:05.097Z,1.08
2023-03-22T13:37:34.979Z,1.10
2023-03-22T13:40:05.825Z,0.82
2023-03-22T13:42:37.070Z,0.70
2023-03-22T13:45:08.781Z,0.70
2023-03-22T13:47:39.441Z,0.70
2023-03-22T13:50:12.706Z,0.80
2023-03-22T13:53:00.468Z,0.80
2023-03-22T13:55:46.745Z,0.57
2023-03-22T13:58:25.776Z,0.90
2023-03-22T14:00:55.375Z,0.90
2023-03-22T14:03:34.938Z,1.02
2023-03-22T14:06:23.026Z,0.95
2023-03-22T14:08:51.838Z,1.08
2023-03-22T14:11:26.222Z,0.75
2023-03-22T14:13:57.574Z,1.10
2023-03-22T14:16:43.677Z,0.77
2023-03-22T14:19:16.599Z,1.00
2023-03-22T14:21:44.996Z,0.80
